createdAt,value
2022-08-14T00:00:16.762Z,20.24
2022-08-14T00:01:16.784Z,20.31
2022-08-14T00:02:16.807Z,20.10
2022-08-14T00:03:16.719Z,20.12
2022-08-14T00:04:35.703Z,19.98
2022-08-14T00:05:16.679Z,20.00
2022-08-14T00:06:27.742Z,19.91
2022-08-14T00:07:16.645Z,19.91
2022-08-14T00:08:16.634Z,19.87
2022-08-14T00:09:16.610Z,19.83
2022-08-14T00:10:50.072Z,19.73
2022-08-14T00:11:17.038Z,19.76
2022-08-14T00:12:24.346Z,19.72
2022-08-14T00:13:16.545Z,19.61
2022-08-14T00:14:17.204Z,19.63
2022-08-14T00:15:16.509Z,19.53
2022-08-14T00:16:40.974Z,19.48
2022-08-14T00:17:16.479Z,19.50
2022-08-14T00:18:30.891Z,19.46
2022-08-14T00:19:21.232Z,19.57
2022-08-14T00:20:23.533Z,19.70
2022-08-14T00:21:16.408Z,19.76
2022-08-14T00:22:44.455Z,19.87
2022-08-14T00:23:17.776Z,19.78
2022-08-14T00:24:28.384Z,19.76
2022-08-14T00:25:16.340Z,19.86
2022-08-14T00:26:21.999Z,19.87
2022-08-14T00:27:16.305Z,19.87
2022-08-14T00:28:17.747Z,19.75
2022-08-14T00:29:16.270Z,19.75
2022-08-14T00:30:17.328Z,19.69
2022-08-14T00:31:16.237Z,19.68
2022-08-14T00:32:56.367Z,19.79
2022-08-14T00:33:16.868Z,19.78
2022-08-14T00:34:36.754Z,19.80
2022-08-14T00:35:16.169Z,19.78
2022-08-14T00:36:37.490Z,19.72
2022-08-14T00:37:16.130Z,19.86
2022-08-14T00:38:16.131Z,19.75
2022-08-14T00:39:18.133Z,19.69
2022-08-14T00:40:27.379Z,19.68
2022-08-14T00:41:16.065Z,19.69
2022-08-14T00:42:52.692Z,19.65
2022-08-14T00:43:16.033Z,19.65
2022-08-14T00:44:21.452Z,19.57
2022-08-14T00:45:15.997Z,19.50
2022-08-14T00:46:32.176Z,19.36
2022-08-14T00:47:15.966Z,19.36
2022-08-14T00:48:15.963Z,19.43
2022-08-14T00:49:15.930Z,19.43
2022-08-14T00:50:17.757Z,19.35
2022-08-14T00:51:15.893Z,19.25
2022-08-14T00:52:18.079Z,19.17
2022-08-14T00:53:15.860Z,19.20
2022-08-14T00:54:21.487Z,19.20
2022-08-14T00:55:15.822Z,19.08
2022-08-14T00:56:15.815Z,19.08
2022-08-14T00:57:15.793Z,19.06
2022-08-14T00:58:15.767Z,19.15
2022-08-14T00:59:16.151Z,19.06
2022-08-14T01:00:34.459Z,19.11
2022-08-14T01:01:17.044Z,19.15
2022-08-14T01:02:15.702Z,19.14
2022-08-14T01:03:15.692Z,19.29
2022-08-14T01:04:38.465Z,19.18
2022-08-14T01:05:15.669Z,19.20
2022-08-14T01:06:15.630Z,19.21
2022-08-14T01:07:15.632Z,19.23
2022-08-14T01:08:50.503Z,19.21
2022-08-14T01:09:15.590Z,19.25
2022-08-14T01:10:15.568Z,19.65
2022-08-14T01:11:15.542Z,19.79
2022-08-14T01:12:15.529Z,19.79
2022-08-14T01:13:15.504Z,19.79
2022-08-14T01:14:25.627Z,19.84
2022-08-14T01:15:15.471Z,19.78
2022-08-14T01:16:15.460Z,19.78
2022-08-14T01:17:15.438Z,19.78
2022-08-14T01:18:15.425Z,19.72
2022-08-14T01:19:15.399Z,19.78
2022-08-14T01:20:27.764Z,19.76
2022-08-14T01:21:15.368Z,19.69
2022-08-14T01:22:18.467Z,19.66
2022-08-14T01:23:16.379Z,19.61
2022-08-14T01:24:15.318Z,19.68
2022-08-14T01:25:15.299Z,19.54
2022-08-14T01:26:15.291Z,19.51
2022-08-14T01:27:15.268Z,19.42
2022-08-14T01:28:46.496Z,19.51
2022-08-14T01:29:16.151Z,19.43
2022-08-14T01:30:16.823Z,19.54
2022-08-14T01:31:15.191Z,19.61
2022-08-14T01:32:15.700Z,19.69
2022-08-14T01:33:15.159Z,19.63
2022-08-14T01:35:17.241Z,19.47
2022-08-14T01:35:20.041Z,19.60
2022-08-14T01:36:22.754Z,19.46
2022-08-14T01:37:16.475Z,19.65
2022-08-14T01:38:15.078Z,19.84
2022-08-14T01:39:15.056Z,19.78
2022-08-14T01:40:15.475Z,19.79
2022-08-14T01:41:15.183Z,19.69
2022-08-14T01:42:31.365Z,19.68
2022-08-14T01:43:15.014Z,19.60
2022-08-14T01:44:33.290Z,19.65
2022-08-14T01:45:17.980Z,19.48
2022-08-14T01:46:24.416Z,19.54
2022-08-14T01:47:21.407Z,19.36
2022-08-14T01:48:14.895Z,19.35
2022-08-14T01:49:14.885Z,19.25
2022-08-14T01:50:14.860Z,19.18
2022-08-14T01:51:18.355Z,19.17
2022-08-14T01:52:34.216Z,19.18
2022-08-14T01:53:14.809Z,19.06
2022-08-14T01:54:14.791Z,18.99
2022-08-14T01:55:14.775Z,18.87
2022-08-14T01:56:18.763Z,18.83
2022-08-14T01:57:14.737Z,18.77
2022-08-14T01:58:19.509Z,18.74
2022-08-14T01:59:18.485Z,18.72
2022-08-14T02:00:14.686Z,18.54
2022-08-14T02:01:14.680Z,18.54
2022-08-14T02:02:18.943Z,18.54
2022-08-14T02:03:14.783Z,18.52
2022-08-14T02:04:40.712Z,18.46
2022-08-14T02:05:14.593Z,18.49
2022-08-14T02:06:33.219Z,18.42
2022-08-14T02:07:15.481Z,18.39
2022-08-14T02:08:16.130Z,18.29
2022-08-14T02:09:19.077Z,18.31
2022-08-14T02:10:15.898Z,18.21
2022-08-14T02:11:14.489Z,18.25
2022-08-14T02:12:19.603Z,18.17
2022-08-14T02:13:14.454Z,18.13
2022-08-14T02:14:14.437Z,18.13
2022-08-14T02:15:15.287Z,18.17
2022-08-14T02:16:21.846Z,18.09
2022-08-14T02:17:14.384Z,18.15
2022-08-14T02:18:15.266Z,18.09
2022-08-14T02:19:14.347Z,18.00
2022-08-14T02:20:14.347Z,18.09
2022-08-14T02:21:14.308Z,18.02
2022-08-14T02:22:14.307Z,18.00
2022-08-14T02:23:14.271Z,17.97
2022-08-14T02:24:40.473Z,17.92
2022-08-14T02:25:14.238Z,18.00
2022-08-14T02:26:24.951Z,17.92
2022-08-14T02:28:22.028Z,17.89
2022-08-14T02:28:25.237Z,17.81
2022-08-14T02:29:14.167Z,17.94
2022-08-14T02:30:14.148Z,17.92
2022-08-14T02:31:14.987Z,17.85
2022-08-14T02:32:19.982Z,17.84
2022-08-14T02:33:14.242Z,17.81
2022-08-14T02:34:22.090Z,17.88
2022-08-14T02:35:14.063Z,18.02
2022-08-14T02:37:04.451Z,18.13
2022-08-14T02:37:14.015Z,18.15
2022-08-14T02:38:30.204Z,18.39
2022-08-14T02:39:13.978Z,18.39
2022-08-14T02:40:13.968Z,18.40
2022-08-14T02:41:13.942Z,18.70
2022-08-14T02:42:13.925Z,18.80
2022-08-14T02:43:13.903Z,18.86
2022-08-14T02:44:13.883Z,18.98
2022-08-14T02:45:13.870Z,19.05
2022-08-14T02:46:13.854Z,19.17
2022-08-14T02:47:15.154Z,19.29
2022-08-14T02:49:01.293Z,19.46
2022-08-14T02:49:13.792Z,19.70
2022-08-14T02:50:13.775Z,19.90
2022-08-14T02:51:13.753Z,20.08
2022-08-14T02:52:26.880Z,20.21
2022-08-14T02:53:13.774Z,20.28
2022-08-14T02:54:19.733Z,20.28
2022-08-14T02:55:19.658Z,20.24
2022-08-14T02:56:29.672Z,20.41
2022-08-14T02:57:39.273Z,20.42
2022-08-14T02:58:30.336Z,20.46
2022-08-14T02:59:13.617Z,20.46
2022-08-14T03:00:18.687Z,20.31
2022-08-14T03:01:13.601Z,20.28
2022-08-14T03:02:33.286Z,20.12
2022-08-14T03:03:13.538Z,20.08
2022-08-14T03:04:13.526Z,19.91
2022-08-14T03:05:13.506Z,19.78
2022-08-14T03:06:13.488Z,19.70
2022-08-14T03:07:13.488Z,19.72
2022-08-14T03:08:16.150Z,19.68
2022-08-14T03:09:13.432Z,19.53
2022-08-14T03:10:26.363Z,19.55
2022-08-14T03:11:13.401Z,19.38
2022-08-14T03:12:13.383Z,19.25
2022-08-14T03:13:19.449Z,19.24
2022-08-14T03:14:15.344Z,19.17
2022-08-14T03:15:14.251Z,19.01
2022-08-14T03:16:19.925Z,18.95
2022-08-14T03:17:13.295Z,18.95
2022-08-14T03:18:13.278Z,18.92
2022-08-14T03:19:13.359Z,18.87
2022-08-14T03:20:13.248Z,18.65
2022-08-14T03:21:13.228Z,18.70
2022-08-14T03:22:17.541Z,18.59
2022-08-14T03:23:13.189Z,18.79
2022-08-14T03:24:21.421Z,18.68
2022-08-14T03:25:13.152Z,18.55
2022-08-14T03:26:18.365Z,18.67
2022-08-14T03:27:13.121Z,18.50
2022-08-14T03:28:14.835Z,18.59
2022-08-14T03:29:14.031Z,18.58
2022-08-14T03:30:14.606Z,18.42
2022-08-14T03:31:13.594Z,18.49
2022-08-14T03:32:13.029Z,18.43
2022-08-14T03:33:13.082Z,18.34
2022-08-14T03:34:24.269Z,18.40
2022-08-14T03:35:12.971Z,18.42
2022-08-14T03:37:37.679Z,18.40
2022-08-14T03:37:39.107Z,18.34
2022-08-14T03:39:14.407Z,18.33
2022-08-14T03:39:21.974Z,18.27
2022-08-14T03:40:18.412Z,18.31
2022-08-14T03:41:12.864Z,18.33
2022-08-14T03:42:19.371Z,18.49
2022-08-14T03:43:12.826Z,18.59
2022-08-14T03:45:20.077Z,18.62
2022-08-14T03:45:25.876Z,18.73
2022-08-14T03:46:52.463Z,18.54
2022-08-14T03:47:15.248Z,18.49
2022-08-14T03:48:29.524Z,18.37
2022-08-14T03:49:12.798Z,18.37
2022-08-14T03:50:12.702Z,18.31
2022-08-14T03:51:12.683Z,18.29
2022-08-14T03:52:37.920Z,18.24
2022-08-14T03:53:12.646Z,18.07
2022-08-14T03:54:15.801Z,18.02
2022-08-14T03:55:12.607Z,17.95
2022-08-14T03:56:12.590Z,17.81
2022-08-14T03:57:12.574Z,17.73
2022-08-14T03:58:12.981Z,17.67
2022-08-14T03:59:17.815Z,17.59
2022-08-14T04:00:13.957Z,17.57
2022-08-14T04:01:12.543Z,17.63
2022-08-14T04:02:32.882Z,17.64
2022-08-14T04:03:15.407Z,17.51
2022-08-14T04:04:12.440Z,17.44
2022-08-14T04:05:13.092Z,17.28
2022-08-14T04:06:12.405Z,17.29
2022-08-14T04:07:12.391Z,17.14
2022-08-14T04:08:29.883Z,17.11
2022-08-14T04:09:12.352Z,17.15
2022-08-14T04:10:12.349Z,17.04
2022-08-14T04:11:12.311Z,17.00
2022-08-14T04:12:13.483Z,16.93
2022-08-14T04:13:12.283Z,17.04
2022-08-14T04:14:12.257Z,16.92
2022-08-14T04:15:12.242Z,16.93
2022-08-14T04:16:12.758Z,16.85
2022-08-14T04:17:12.198Z,16.83
2022-08-14T04:18:12.182Z,16.88
2022-08-14T04:19:12.163Z,16.73
2022-08-14T04:20:12.141Z,16.78
2022-08-14T04:21:12.128Z,16.85
2022-08-14T04:22:12.107Z,16.73
2022-08-14T04:23:23.279Z,16.74
2022-08-14T04:24:12.098Z,16.62
2022-08-14T04:25:12.043Z,16.70
2022-08-14T04:26:14.244Z,16.63
2022-08-14T04:27:12.010Z,16.65
2022-08-14T04:29:08.530Z,16.59
2022-08-14T04:29:14.793Z,16.59
2022-08-14T04:30:11.948Z,16.56
2022-08-14T04:31:11.934Z,16.53
2022-08-14T04:33:00.755Z,16.44
2022-08-14T04:33:20.375Z,16.41
2022-08-14T04:34:20.981Z,16.49
2022-08-14T04:35:11.858Z,16.40
2022-08-14T04:36:15.744Z,16.48
2022-08-14T04:37:11.822Z,16.42
2022-08-14T04:38:37.047Z,16.38
2022-08-14T04:39:12.148Z,16.49
2022-08-14T04:40:11.799Z,16.44
2022-08-14T04:41:11.738Z,16.41
2022-08-14T04:42:12.279Z,16.44
2022-08-14T04:43:14.418Z,16.44
2022-08-14T04:44:13.361Z,16.49
2022-08-14T04:45:11.663Z,16.48
2022-08-14T04:46:11.892Z,16.45
2022-08-14T04:47:11.624Z,16.44
2022-08-14T04:48:12.538Z,16.42
2022-08-14T04:49:11.587Z,16.48
2022-08-14T04:50:11.599Z,16.41
2022-08-14T04:51:11.545Z,16.50
2022-08-14T04:52:15.521Z,16.53
2022-08-14T04:53:11.514Z,16.42
2022-08-14T04:54:11.490Z,16.41
2022-08-14T04:55:11.467Z,16.48
2022-08-14T04:56:31.286Z,16.44
2022-08-14T04:57:11.434Z,16.42
2022-08-14T04:58:21.249Z,16.45
2022-08-14T04:59:11.392Z,16.45
2022-08-14T05:00:16.108Z,16.45
2022-08-14T05:01:13.004Z,16.45
2022-08-14T05:02:11.365Z,16.50
2022-08-14T05:03:12.305Z,16.49
2022-08-14T05:04:16.022Z,16.40
2022-08-14T05:05:11.294Z,16.48
2022-08-14T05:06:37.964Z,16.53
2022-08-14T05:07:11.233Z,16.42
2022-08-14T05:08:11.219Z,16.56
2022-08-14T05:09:14.343Z,16.50
2022-08-14T05:10:13.078Z,16.49
2022-08-14T05:11:11.896Z,16.48
2022-08-14T05:13:12.657Z,16.50
2022-08-14T05:13:30.049Z,16.55
2022-08-14T05:14:17.063Z,16.56
2022-08-14T05:15:11.080Z,16.60
2022-08-14T05:16:11.060Z,16.63
2022-08-14T05:17:11.038Z,16.74
2022-08-14T05:18:17.409Z,16.65
2022-08-14T05:19:25.012Z,16.80
2022-08-14T05:21:04.333Z,16.85
2022-08-14T05:21:56.781Z,16.93
2022-08-14T05:22:16.640Z,17.03
2022-08-14T05:23:11.152Z,17.04
2022-08-14T05:24:17.818Z,17.06
2022-08-14T05:25:10.912Z,17.14
2022-08-14T05:26:10.869Z,17.18
2022-08-14T05:27:10.851Z,17.15
2022-08-14T05:28:12.453Z,17.28
2022-08-14T05:29:11.971Z,17.30
2022-08-14T05:30:10.791Z,17.36
2022-08-14T05:31:10.778Z,17.41
2022-08-14T05:32:10.759Z,17.51
2022-08-14T05:33:10.736Z,17.46
2022-08-14T05:34:10.715Z,17.48
2022-08-14T05:35:10.706Z,17.50
2022-08-14T05:36:16.673Z,17.53
2022-08-14T05:37:10.662Z,17.70
2022-08-14T05:38:11.042Z,17.63
2022-08-14T05:39:10.639Z,17.64
2022-08-14T05:40:10.613Z,17.64
2022-08-14T05:41:10.587Z,17.76
2022-08-14T05:42:21.950Z,17.78
2022-08-14T05:43:10.564Z,17.85
2022-08-14T05:44:10.531Z,17.84
2022-08-14T05:45:11.234Z,17.87
2022-08-14T05:46:10.492Z,17.95
2022-08-14T05:47:10.473Z,18.03
2022-08-14T05:48:10.458Z,18.06
2022-08-14T05:49:10.440Z,18.12
2022-08-14T05:50:17.243Z,18.24
2022-08-14T05:51:10.408Z,18.19
2022-08-14T05:52:10.388Z,18.19
2022-08-14T05:53:10.365Z,18.36
2022-08-14T05:54:17.607Z,18.33
2022-08-14T05:55:10.330Z,18.42
2022-08-14T05:56:10.313Z,18.58
2022-08-14T05:57:10.293Z,18.55
2022-08-14T05:58:10.277Z,18.64
2022-08-14T05:59:10.274Z,18.67
2022-08-14T06:00:10.239Z,18.64
2022-08-14T06:01:10.401Z,18.86
2022-08-14T06:02:11.133Z,18.97
2022-08-14T06:03:10.182Z,19.02
2022-08-14T06:04:10.168Z,19.17
2022-08-14T06:05:10.148Z,19.28
2022-08-14T06:06:10.140Z,19.55
2022-08-14T06:07:10.117Z,19.65
2022-08-14T06:08:31.319Z,19.84
2022-08-14T06:09:10.231Z,19.94
2022-08-14T06:10:10.063Z,20.03
2022-08-14T06:11:10.052Z,20.13
2022-08-14T06:12:10.041Z,20.24
2022-08-14T06:13:10.024Z,20.42
2022-08-14T06:14:21.060Z,20.72
2022-08-14T06:15:09.974Z,20.72
2022-08-14T06:16:09.957Z,20.87
2022-08-14T06:17:09.938Z,20.98
2022-08-14T06:18:09.926Z,20.95
2022-08-14T06:19:11.491Z,21.05
2022-08-14T06:20:10.325Z,21.21
2022-08-14T06:21:13.534Z,21.23
2022-08-14T06:22:09.859Z,21.26
2022-08-14T06:23:09.846Z,21.21
2022-08-14T06:24:10.435Z,21.21
2022-08-14T06:25:09.808Z,21.51
2022-08-14T06:26:09.794Z,21.54
2022-08-14T06:27:10.734Z,21.60
2022-08-14T06:28:27.347Z,21.59
2022-08-14T06:29:09.743Z,21.60
2022-08-14T06:30:10.793Z,21.83
2022-08-14T06:31:09.713Z,21.99
2022-08-14T06:32:38.818Z,22.04
2022-08-14T06:33:09.683Z,22.14
2022-08-14T06:35:03.030Z,22.31
2022-08-14T06:35:12.396Z,22.32
2022-08-14T06:36:09.634Z,22.44
2022-08-14T06:37:09.617Z,22.57
2022-08-14T06:38:12.197Z,22.64
2022-08-14T06:39:10.484Z,22.69
2022-08-14T06:40:25.758Z,22.78
2022-08-14T06:41:10.957Z,22.72
2022-08-14T06:42:09.540Z,22.84
2022-08-14T06:43:09.532Z,22.80
2022-08-14T06:44:09.752Z,23.01
2022-08-14T06:45:09.696Z,23.04
2022-08-14T06:46:22.309Z,23.01
2022-08-14T06:47:09.467Z,23.01
2022-08-14T06:48:12.743Z,23.05
2022-08-14T06:49:09.485Z,23.20
2022-08-14T06:50:09.420Z,23.22
2022-08-14T06:51:09.406Z,23.19
2022-08-14T06:52:09.393Z,23.22
2022-08-14T06:53:09.378Z,23.32
2022-08-14T06:54:09.358Z,23.31
2022-08-14T06:55:09.361Z,23.42
2022-08-14T06:56:09.332Z,23.42
2022-08-14T06:57:09.321Z,23.47
2022-08-14T06:58:24.841Z,23.50
2022-08-14T06:59:09.286Z,23.58
2022-08-14T07:00:09.272Z,23.67
2022-08-14T07:01:09.311Z,23.61
2022-08-14T07:02:13.314Z,23.65
2022-08-14T07:03:09.230Z,23.75
2022-08-14T07:04:22.810Z,23.60
2022-08-14T07:05:09.201Z,23.65
2022-08-14T07:06:21.299Z,23.67
2022-08-14T07:07:09.176Z,23.72
2022-08-14T07:08:09.170Z,23.82
2022-08-14T07:09:09.159Z,23.77
2022-08-14T07:10:16.902Z,23.79
2022-08-14T07:11:09.121Z,23.98
2022-08-14T07:12:09.101Z,24.13
2022-08-14T07:13:09.508Z,24.19
2022-08-14T07:14:09.071Z,24.20
2022-08-14T07:15:09.069Z,24.41
2022-08-14T07:16:09.042Z,24.45
2022-08-14T07:17:09.084Z,24.39
2022-08-14T07:18:09.341Z,24.49
2022-08-14T07:19:09.004Z,24.68
2022-08-14T07:20:08.986Z,24.85
2022-08-14T07:21:08.973Z,25.06
2022-08-14T07:22:17.449Z,25.25
2022-08-14T07:23:10.970Z,25.53
2022-08-14T07:24:09.511Z,25.74
2022-08-14T07:25:08.919Z,26.22
2022-08-14T07:26:10.246Z,26.46
2022-08-14T07:27:09.521Z,26.65
2022-08-14T07:28:08.891Z,26.95
2022-08-14T07:29:08.866Z,27.19
2022-08-14T07:30:09.091Z,27.53
2022-08-14T07:31:08.844Z,27.80
2022-08-14T07:32:08.830Z,27.89
2022-08-14T07:33:08.817Z,28.03
2022-08-14T07:34:08.801Z,28.26
2022-08-14T07:35:08.843Z,28.46
2022-08-14T07:36:09.025Z,28.77
2022-08-14T07:37:09.884Z,29.03
2022-08-14T07:38:08.758Z,29.38
2022-08-14T07:39:12.550Z,29.55
2022-08-14T07:40:08.769Z,29.99
2022-08-14T07:41:14.548Z,30.09
2022-08-14T07:42:08.764Z,30.19
2022-08-14T07:43:14.281Z,29.87
2022-08-14T07:44:32.513Z,29.57
2022-08-14T07:45:08.675Z,29.45
2022-08-14T07:46:08.665Z,29.52
2022-08-14T07:47:08.651Z,29.89
2022-08-14T07:48:08.642Z,29.70
2022-08-14T07:49:08.629Z,29.87
2022-08-14T07:50:08.622Z,29.75
2022-08-14T07:51:10.869Z,30.02
2022-08-14T07:52:08.608Z,30.18
2022-08-14T07:53:08.585Z,30.33
2022-08-14T07:54:11.293Z,29.97
2022-08-14T07:55:08.567Z,30.08
2022-08-14T07:56:09.181Z,30.12
2022-08-14T07:57:12.652Z,29.93
2022-08-14T07:58:21.283Z,29.75
2022-08-14T07:59:09.016Z,29.71
2022-08-14T08:00:08.520Z,30.00
2022-08-14T08:01:08.514Z,30.05
2022-08-14T08:02:08.498Z,29.93
2022-08-14T08:03:08.515Z,29.99
2022-08-14T08:04:16.563Z,30.09
2022-08-14T08:05:08.470Z,30.00
2022-08-14T08:06:10.626Z,29.81
2022-08-14T08:07:08.443Z,29.89
2022-08-14T08:08:08.505Z,29.97
2022-08-14T08:09:08.424Z,29.86
2022-08-14T08:10:08.417Z,29.72
2022-08-14T08:11:08.563Z,29.57
2022-08-14T08:12:09.148Z,29.65
2022-08-14T08:13:08.393Z,29.56
2022-08-14T08:14:16.329Z,29.75
2022-08-14T08:15:08.370Z,30.08
2022-08-14T08:16:08.368Z,30.38
2022-08-14T08:17:08.359Z,30.46
2022-08-14T08:18:08.339Z,30.71
2022-08-14T08:19:12.874Z,30.91
2022-08-14T08:20:09.002Z,31.11
2022-08-14T08:21:08.345Z,31.17
2022-08-14T08:22:08.315Z,31.38
2022-08-14T08:23:08.317Z,31.43
2022-08-14T08:24:08.328Z,31.82
2022-08-14T08:25:13.790Z,32.00
2022-08-14T08:26:08.272Z,32.05
2022-08-14T08:27:08.264Z,32.22
2022-08-14T08:28:08.768Z,32.61
2022-08-14T08:29:08.245Z,32.74
2022-08-14T08:30:10.249Z,32.98
2022-08-14T08:31:08.412Z,33.10
2022-08-14T08:32:08.229Z,32.77
2022-08-14T08:33:08.224Z,32.98
2022-08-14T08:34:14.105Z,32.92
2022-08-14T08:35:08.190Z,32.88
2022-08-14T08:36:08.238Z,32.67
2022-08-14T08:37:08.176Z,32.57
2022-08-14T08:39:14.048Z,32.48
2022-08-14T08:39:16.744Z,32.71
2022-08-14T08:40:08.236Z,32.52
2022-08-14T08:41:10.894Z,32.11
2022-08-14T08:42:08.129Z,32.10
2022-08-14T08:43:08.125Z,32.33
2022-08-14T08:44:17.538Z,32.66
2022-08-14T08:45:12.050Z,32.49
2022-08-14T08:46:08.098Z,32.42
2022-08-14T08:47:08.230Z,32.62
2022-08-14T08:48:20.615Z,32.80
2022-08-14T08:49:08.072Z,32.86
2022-08-14T08:50:22.782Z,32.96
2022-08-14T08:51:08.055Z,33.07
2022-08-14T08:52:08.051Z,33.36
2022-08-14T08:53:08.042Z,33.46
2022-08-14T08:54:10.805Z,33.26
2022-08-14T08:55:08.045Z,33.15
2022-08-14T08:56:08.019Z,33.22
2022-08-14T08:57:08.096Z,32.71
2022-08-14T08:58:16.041Z,32.92
2022-08-14T08:59:07.992Z,32.95
2022-08-14T09:00:10.053Z,33.20
2022-08-14T09:01:07.997Z,33.20
2022-08-14T09:02:10.386Z,33.43
2022-08-14T09:03:10.034Z,33.22
2022-08-14T09:04:14.671Z,33.01
2022-08-14T09:05:07.957Z,32.98
2022-08-14T09:06:53.814Z,33.34
2022-08-14T09:07:10.916Z,33.37
2022-08-14T09:08:08.219Z,33.41
2022-08-14T09:09:07.910Z,33.58
2022-08-14T09:10:08.045Z,33.58
2022-08-14T09:11:20.014Z,33.70
2022-08-14T09:12:07.885Z,33.63
2022-08-14T09:13:07.879Z,33.34
2022-08-14T09:14:07.870Z,33.58
2022-08-14T09:15:12.153Z,33.92
2022-08-14T09:16:18.993Z,33.85
2022-08-14T09:17:07.843Z,33.64
2022-08-14T09:18:07.848Z,33.82
2022-08-14T09:19:07.831Z,33.98
2022-08-14T09:20:07.820Z,33.94
2022-08-14T09:21:07.813Z,33.85
2022-08-14T09:22:34.844Z,33.83
2022-08-14T09:24:26.981Z,33.76
2022-08-14T09:25:07.862Z,33.57
2022-08-14T09:26:21.291Z,33.80
2022-08-14T09:27:07.769Z,34.05
2022-08-14T09:28:07.760Z,34.22
2022-08-14T09:29:07.751Z,34.17
2022-08-14T09:30:31.504Z,34.02
2022-08-14T09:31:18.027Z,33.92
2022-08-14T09:32:57.683Z,34.27
2022-08-14T09:33:11.624Z,34.17
2022-08-14T09:34:09.201Z,34.07
2022-08-14T09:35:08.335Z,33.76
2022-08-14T09:36:07.697Z,33.94
2022-08-14T09:37:07.685Z,33.95
2022-08-14T09:38:07.682Z,34.48
2022-08-14T09:39:11.806Z,34.29
2022-08-14T09:40:07.726Z,34.70
2022-08-14T09:41:07.665Z,34.53
2022-08-14T09:42:21.075Z,34.72
2022-08-14T09:43:07.650Z,34.46
2022-08-14T09:44:07.637Z,34.27
2022-08-14T09:45:08.965Z,34.61
2022-08-14T09:46:07.623Z,34.77
2022-08-14T09:47:07.617Z,34.77
2022-08-14T09:48:07.628Z,34.74
2022-08-14T09:49:07.600Z,34.80
2022-08-14T09:50:07.595Z,34.88
2022-08-14T09:51:32.980Z,35.21
2022-08-14T09:52:23.628Z,35.13
2022-08-14T09:53:17.802Z,35.02
2022-08-14T09:54:18.674Z,35.07
2022-08-14T09:55:07.556Z,34.88
2022-08-14T09:56:10.083Z,34.88
2022-08-14T09:57:09.023Z,35.18
2022-08-14T09:58:07.545Z,35.42
2022-08-14T09:59:07.526Z,35.20
2022-08-14T10:00:07.518Z,35.21
2022-08-14T10:01:07.511Z,35.14
2022-08-14T10:02:07.527Z,34.79
2022-08-14T10:03:07.565Z,34.64
2022-08-14T10:04:21.985Z,34.45
2022-08-14T10:05:08.806Z,34.53
2022-08-14T10:06:07.483Z,34.64
2022-08-14T10:07:08.225Z,34.73
2022-08-14T10:08:14.852Z,35.01
2022-08-14T10:09:12.064Z,35.17
2022-08-14T10:10:23.469Z,35.14
2022-08-14T10:11:07.452Z,35.14
2022-08-14T10:12:18.722Z,35.26
2022-08-14T10:13:07.429Z,35.25
2022-08-14T10:14:07.427Z,35.51
2022-08-14T10:15:07.420Z,35.50
2022-08-14T10:16:07.413Z,35.26
2022-08-14T10:17:08.367Z,35.20
2022-08-14T10:18:07.396Z,35.25
2022-08-14T10:19:09.249Z,35.32
2022-08-14T10:20:07.385Z,35.39
2022-08-14T10:21:09.707Z,35.20
2022-08-14T10:23:14.665Z,34.74
2022-08-14T10:23:15.311Z,35.06
2022-08-14T10:24:07.363Z,34.77
2022-08-14T10:25:07.355Z,35.07
2022-08-14T10:26:07.352Z,35.35
2022-08-14T10:27:07.359Z,35.21
2022-08-14T10:28:07.338Z,35.28
2022-08-14T10:29:19.605Z,35.20
2022-08-14T10:30:12.239Z,35.18
2022-08-14T10:31:07.321Z,35.62
2022-08-14T10:32:18.297Z,35.81
2022-08-14T10:33:07.310Z,35.91
2022-08-14T10:34:12.989Z,35.81
2022-08-14T10:35:09.269Z,35.62
2022-08-14T10:36:07.292Z,35.03
2022-08-14T10:37:14.624Z,34.84
2022-08-14T10:38:07.485Z,34.88
2022-08-14T10:39:07.279Z,35.18
2022-08-14T10:40:36.820Z,34.74
2022-08-14T10:41:07.431Z,34.72
2022-08-14T10:42:18.279Z,34.61
2022-08-14T10:43:07.260Z,34.24
2022-08-14T10:44:07.255Z,34.34
2022-08-14T10:45:07.256Z,34.19
2022-08-14T10:47:36.467Z,33.87
2022-08-14T10:47:39.554Z,34.05
2022-08-14T10:48:10.205Z,33.89
2022-08-14T10:49:07.228Z,34.11
2022-08-14T10:50:07.225Z,34.01
2022-08-14T10:51:08.652Z,33.71
2022-08-14T10:52:07.225Z,33.71
2022-08-14T10:53:07.976Z,34.00
2022-08-14T10:54:16.801Z,34.23
2022-08-14T10:55:07.216Z,34.38
2022-08-14T10:56:07.200Z,34.26
2022-08-14T10:57:07.349Z,34.17
2022-08-14T10:58:07.263Z,33.97
2022-08-14T10:59:08.235Z,34.14
2022-08-14T11:00:07.184Z,34.35
2022-08-14T11:01:07.179Z,34.66
2022-08-14T11:02:07.176Z,34.74
2022-08-14T11:03:07.176Z,34.79
2022-08-14T11:04:07.217Z,34.48
2022-08-14T11:05:07.215Z,34.45
2022-08-14T11:06:07.161Z,34.46
2022-08-14T11:07:07.162Z,34.45
2022-08-14T11:08:09.058Z,34.44
2022-08-14T11:09:07.148Z,34.46
2022-08-14T11:10:07.193Z,34.66
2022-08-14T11:11:07.158Z,34.88
2022-08-14T11:12:34.315Z,34.79
2022-08-14T11:13:07.136Z,35.07
2022-08-14T11:14:07.143Z,34.83
2022-08-14T11:15:07.146Z,34.63
2022-08-14T11:16:07.164Z,34.41
2022-08-14T11:17:07.128Z,34.35
2022-08-14T11:18:07.141Z,34.72
2022-08-14T11:19:07.138Z,35.13
2022-08-14T11:20:07.157Z,35.18
2022-08-14T11:21:08.400Z,35.03
2022-08-14T11:22:07.121Z,34.98
2022-08-14T11:23:07.448Z,35.02
2022-08-14T11:24:50.764Z,35.15
2022-08-14T11:25:07.111Z,34.94
2022-08-14T11:26:07.241Z,34.76
2022-08-14T11:27:07.119Z,34.77
2022-08-14T11:28:10.914Z,34.74
2022-08-14T11:29:07.108Z,34.83
2022-08-14T11:30:50.887Z,34.88
2022-08-14T11:31:07.105Z,34.73
2022-08-14T11:32:07.128Z,34.60
2022-08-14T11:33:07.101Z,34.46
2022-08-14T11:34:10.427Z,34.48
2022-08-14T11:35:07.105Z,34.45
2022-08-14T11:36:10.309Z,34.60
2022-08-14T11:37:17.939Z,34.27
2022-08-14T11:38:07.104Z,33.86
2022-08-14T11:39:09.888Z,33.97
2022-08-14T11:40:07.222Z,34.26
2022-08-14T11:41:07.383Z,34.50
2022-08-14T11:42:55.491Z,34.58
2022-08-14T11:43:07.615Z,34.74
2022-08-14T11:44:13.260Z,34.63
2022-08-14T11:45:10.988Z,34.36
2022-08-14T11:46:07.089Z,34.29
2022-08-14T11:47:07.175Z,34.13
2022-08-14T11:48:13.051Z,34.02
2022-08-14T11:49:07.206Z,34.34
2022-08-14T11:50:07.152Z,34.44
2022-08-14T11:51:07.084Z,34.48
2022-08-14T11:52:07.173Z,34.58
2022-08-14T11:53:07.733Z,34.31
2022-08-14T11:54:08.083Z,34.44
2022-08-14T11:55:07.087Z,34.46
2022-08-14T11:56:07.089Z,34.63
2022-08-14T11:57:07.084Z,34.70
2022-08-14T11:58:07.106Z,34.80
2022-08-14T11:59:07.117Z,34.80
2022-08-14T12:00:08.388Z,34.53
2022-08-14T12:01:07.109Z,34.11
2022-08-14T12:02:07.089Z,34.14
2022-08-14T12:03:07.456Z,34.36
2022-08-14T12:04:07.631Z,34.46
2022-08-14T12:05:09.330Z,34.70
2022-08-14T12:06:07.091Z,34.79
2022-08-14T12:07:07.107Z,34.66
2022-08-14T12:08:07.087Z,34.72
2022-08-14T12:09:08.464Z,34.72
2022-08-14T12:10:26.073Z,34.89
2022-08-14T12:11:07.097Z,35.10
2022-08-14T12:12:07.096Z,35.10
2022-08-14T12:13:07.094Z,35.18
2022-08-14T12:14:07.122Z,35.40
2022-08-14T12:15:07.224Z,35.55
2022-08-14T12:16:11.220Z,35.23
2022-08-14T12:17:12.000Z,35.10
2022-08-14T12:18:07.110Z,35.23
2022-08-14T12:19:07.169Z,34.94
2022-08-14T12:20:07.095Z,34.89
2022-08-14T12:21:07.093Z,34.92
2022-08-14T12:22:07.100Z,35.25
2022-08-14T12:23:07.143Z,35.25
2022-08-14T12:24:08.488Z,35.11
2022-08-14T12:25:11.040Z,34.95
2022-08-14T12:26:31.894Z,35.13
2022-08-14T12:27:07.229Z,34.92
2022-08-14T12:28:07.107Z,34.83
2022-08-14T12:29:07.151Z,34.80
2022-08-14T12:30:07.126Z,34.83
2022-08-14T12:31:07.126Z,34.77
2022-08-14T12:32:09.090Z,34.69
2022-08-14T12:33:07.369Z,34.79
2022-08-14T12:34:10.060Z,34.81
2022-08-14T12:35:07.162Z,34.79
2022-08-14T12:36:07.108Z,34.84
2022-08-14T12:37:07.107Z,35.06
2022-08-14T12:38:07.111Z,35.35
2022-08-14T12:39:07.119Z,35.64
2022-08-14T12:40:07.202Z,35.63
2022-08-14T12:41:08.041Z,35.64
2022-08-14T12:42:07.111Z,35.76
2022-08-14T12:43:07.140Z,35.77
2022-08-14T12:44:08.468Z,35.93
2022-08-14T12:45:07.177Z,36.12
2022-08-14T12:46:07.135Z,36.12
2022-08-14T12:47:07.117Z,36.21
2022-08-14T12:48:21.641Z,35.77
2022-08-14T12:49:07.213Z,35.52
2022-08-14T12:50:07.136Z,35.85
2022-08-14T12:51:07.159Z,35.60
2022-08-14T12:52:11.885Z,35.47
2022-08-14T12:53:14.463Z,35.42